Time;durP1;ratioP1;P1;durP2;ratioP2;P2;SDS_P1;SDS_P2;PMS_P1;PMS_P2;Temp;Humidity;BMP_temperature;BMP_pressure;BME280_temperature;BME280_humidity;BME280_pressure;Samples;Min_cycle;Max_cycle;Signal;HPM_P1;HPM_P2
2024/01/18 00:05:57;;;;;;;19.13;9.93;;;;;;;1.00;100.00;100479.94;30949633;28;20058;-74
2024/01/18 00:20:59;;;;;;;16.90;9.73;;;;;;;1.71;100.00;100465.53;30957527;28;20060;-74
2024/01/18 00:36:01;;;;;;;21.37;10.43;;;;;;;2.53;100.00;100455.69;30973554;28;20062;-74
2024/01/18 00:51:04;;;;;;;17.53;8.17;;;;;;;2.25;100.00;100410.38;30881896;28;20061;-74
2024/01/18 01:06:10;;;;;;;15.17;8.17;;;;;;;3.56;100.00;100404.44;30905548;28;20058;-74
2024/01/18 01:21:12;;;;;;;15.10;7.53;;;;;;;3.53;100.00;100385.63;30970162;28;20062;-81
2024/01/18 01:36:14;;;;;;;14.93;7.67;;;;;;;3.55;100.00;100357.28;30988266;28;20050;-82
2024/01/18 01:51:16;;;;;;;12.03;6.70;;;;;;;3.83;100.00;100310.41;31006401;28;20073;-80
2024/01/18 02:06:18;;;;;;;16.93;6.57;;;;;;;4.19;100.00;100280.09;30986780;28;20574;-81
2024/01/18 02:21:20;;;;;;;15.67;7.57;;;;;;;3.57;100.00;100277.16;30979222;28;20050;-83
2024/01/18 02:36:23;;;;;;;17.73;7.27;;;;;;;3.81;100.00;100250.94;30992190;28;20059;-83
2024/01/18 02:51:25;;;;;;;9.50;4.90;;;;;;;3.78;100.00;100234.41;30930201;28;20097;-82
2024/01/18 03:06:27;;;;;;;8.93;4.70;;;;;;;4.61;100.00;100182.09;31006975;28;20558;-84
2024/01/18 03:21:29;;;;;;;6.63;3.97;;;;;;;4.76;100.00;100189.09;30999373;28;20100;-84
2024/01/18 03:36:31;;;;;;;5.43;2.97;;;;;;;5.01;100.00;100167.69;30963495;28;20090;-73
2024/01/18 03:51:35;;;;;;;6.50;4.17;;;;;;;5.09;100.00;100120.81;30928720;28;20052;-74
2024/01/18 04:06:37;;;;;;;9.73;3.73;;;;;;;5.24;100.00;100110.84;30965812;28;20054;-74
2024/01/18 04:21:39;;;;;;;6.23;3.73;;;;;;;4.53;100.00;100084.50;30919340;28;20073;-74
2024/01/18 04:36:41;;;;;;;10.00;3.93;;;;;;;5.69;100.00;100077.81;30963115;28;20058;-74
2024/01/18 04:51:43;;;;;;;7.77;3.30;;;;;;;6.00;100.00;100053.97;30984582;28;20054;-83
2024/01/18 05:06:45;;;;;;;7.73;3.77;;;;;;;5.08;100.00;100017.03;30999883;28;20521;-81
2024/01/18 05:21:47;;;;;;;9.93;4.53;;;;;;;5.36;100.00;99994.75;30993716;28;20137;-81
2024/01/18 05:36:51;;;;;;;7.90;3.13;;;;;;;5.58;100.00;99974.72;30985055;28;20057;-83
2024/01/18 05:51:53;;;;;;;7.60;3.67;;;;;;;5.78;100.00;99945.44;31003496;28;20102;-74
2024/01/18 06:06:55;;;;;;;5.23;3.57;;;;;;;5.99;100.00;99913.06;30924885;28;20426;-74
2024/01/18 06:21:57;;;;;;;6.60;4.40;;;;;;;6.25;100.00;99884.84;31012876;28;20046;-84
2024/01/18 06:36:59;;;;;;;8.17;4.40;;;;;;;6.66;100.00;99898.44;31012141;28;20141;-83
2024/01/18 06:52:02;;;;;;;6.47;3.77;;;;;;;7.50;100.00;99877.25;30924322;28;20051;-83
2024/01/18 07:07:04;;;;;;;13.70;5.40;;;;;;;7.60;100.00;99870.19;30996103;28;20057;-85
2024/01/18 07:22:06;;;;;;;10.83;4.73;;;;;;;7.61;100.00;99836.63;30935918;28;20483;-83
2024/01/18 07:37:12;;;;;;;12.50;3.43;;;;;;;8.16;100.00;99849.03;30943567;28;20062;-84
2024/01/18 07:52:14;;;;;;;7.20;4.07;;;;;;;8.32;100.00;99870.84;30968945;28;20046;-81
2024/01/18 08:07:16;;;;;;;13.03;4.63;;;;;;;8.50;100.00;99844.31;30964816;28;20065;-79
2024/01/18 08:22:18;;;;;;;8.77;3.83;;;;;;;8.87;100.00;99850.69;30960520;28;20055;-79
2024/01/18 08:37:20;;;;;;;9.17;2.97;;;;;;;9.55;100.00;99812.28;30971348;28;20089;-81
2024/01/18 08:52:22;;;;;;;4.37;2.70;;;;;;;10.59;100.00;99828.63;30968798;28;20065;-80
2024/01/18 09:07:25;;;;;;;6.37;3.90;;;;;;;10.11;100.00;99774.31;30973881;28;20054;-78
2024/01/18 09:22:27;;;;;;;10.47;4.10;;;;;;;10.84;100.00;99751.97;30969450;28;20133;-79
2024/01/18 09:37:29;;;;;;;10.23;3.93;;;;;;;10.42;100.00;99748.38;30960377;28;20058;-82
2024/01/18 09:52:35;;;;;;;5.20;3.47;;;;;;;10.35;100.00;99693.53;30961516;28;20570;-81
2024/01/18 10:07:38;;;;;;;11.13;4.07;;;;;;;10.55;100.00;99654.25;30967087;28;20057;-81
2024/01/18 10:22:41;;;;;;;9.97;3.30;;;;;;;10.76;100.00;99639.31;30981937;28;20053;-79
2024/01/18 10:37:44;;;;;;;8.13;3.37;;;;;;;11.08;100.00;99586.81;30994955;28;20145;-82
2024/01/18 10:52:48;;;;;;;8.30;3.53;;;;;;;11.17;100.00;99539.97;30975684;28;20046;-79
2024/01/18 11:07:50;;;;;;;9.47;3.33;;;;;;;11.05;100.00;99533.34;30972567;28;20414;-78
2024/01/18 11:22:57;;;;;;;8.27;3.97;;;;;;;10.92;100.00;99508.13;30987774;28;20145;-80
2024/01/18 11:38:28;;;;;;;11.50;3.93;;;;;;;10.85;100.00;99475.78;30967985;28;20054;-75
2024/01/18 11:53:31;;;;;;;9.90;3.70;;;;;;;10.63;100.00;99464.78;31004142;28;20086;-83
2024/01/18 12:08:33;;;;;;;5.80;3.33;;;;;;;10.67;100.00;99423.97;31047828;28;20066;-83
2024/01/18 12:23:36;;;;;;;8.70;4.63;;;;;;;10.54;100.00;99422.03;30991929;28;20479;-83
2024/01/18 12:38:38;;;;;;;10.37;4.57;;;;;;;10.33;100.00;99381.97;30970834;28;20402;-83
2024/01/18 12:53:40;;;;;;;7.20;3.53;;;;;;;10.42;100.00;99365.78;30978909;28;20498;-85
2024/01/18 13:08:42;;;;;;;17.00;5.57;;;;;;;10.43;100.00;99364.59;30951560;28;20125;-84
2024/01/18 13:23:44;;;;;;;7.77;3.93;;;;;;;10.48;100.00;99331.50;30998355;28;20050;-84
2024/01/18 13:38:46;;;;;;;13.50;5.03;;;;;;;10.40;100.00;99310.44;30992756;28;20050;-82
2024/01/18 13:53:50;;;;;;;9.87;4.33;;;;;;;10.39;100.00;99325.22;30976917;28;20078;-83
2024/01/18 14:08:52;;;;;;;18.00;6.27;;;;;;;10.50;100.00;99299.25;31023312;28;20066;-83
2024/01/18 14:23:54;;;;;;;10.93;5.20;;;;;;;10.38;100.00;99277.59;31013649;28;20090;-84
2024/01/18 14:38:56;;;;;;;10.63;4.37;;;;;;;10.46;100.00;99273.44;31011968;28;20152;-82
2024/01/18 14:53:58;;;;;;;10.67;4.37;;;;;;;10.59;100.00;99261.38;31009013;28;20149;-83
2024/01/18 15:09:00;;;;;;;16.47;6.53;;;;;;;10.50;100.00;99272.13;31025982;28;20058;-81
2024/01/18 15:24:02;;;;;;;11.43;5.97;;;;;;;10.62;100.00;99229.13;31007205;28;20147;-82
2024/01/18 15:39:05;;;;;;;10.97;5.70;;;;;;;10.71;100.00;99231.91;30988959;28;20116;-82
2024/01/18 15:54:07;;;;;;;19.50;5.87;;;;;;;10.65;100.00;99215.41;31004240;28;20050;-81
2024/01/18 16:09:09;;;;;;;11.67;5.17;;;;;;;10.66;100.00;99227.03;31027016;28;20063;-82
2024/01/18 16:24:12;;;;;;;11.27;5.67;;;;;;;10.79;100.00;99208.75;30952652;28;20046;-82
2024/01/18 16:39:14;;;;;;;16.50;5.90;;;;;;;10.87;100.00;99191.00;31004411;28;20055;-82
2024/01/18 16:54:18;;;;;;;15.70;5.53;;;;;;;10.00;100.00;99142.00;30968121;28;20121;-82
2024/01/18 17:09:20;;;;;;;16.23;6.10;;;;;;;10.37;100.00;99121.44;30992892;28;20076;-83
2024/01/18 17:24:25;;;;;;;11.83;6.50;;;;;;;9.66;100.00;99102.81;31008932;28;20054;-81
2024/01/18 17:39:28;;;;;;;17.33;6.63;;;;;;;9.66;100.00;99075.72;30961624;28;20081;-82
2024/01/18 17:54:30;;;;;;;18.40;6.43;;;;;;;9.61;100.00;99027.50;30997644;28;20062;-82
2024/01/18 18:09:33;;;;;;;12.17;4.90;;;;;;;9.57;100.00;99018.72;31068941;28;20047;-79
2024/01/18 18:24:35;;;;;;;14.77;5.93;;;;;;;10.32;100.00;99033.22;31012741;28;20054;-79
2024/01/18 18:39:37;;;;;;;12.20;5.73;;;;;;;9.56;100.00;99011.78;31004549;28;20141;-80
2024/01/18 18:54:39;;;;;;;14.37;5.63;;;;;;;9.44;100.00;98966.53;31005345;28;20133;-85
2024/01/18 19:09:42;;;;;;;10.47;5.47;;;;;;;9.39;100.00;98948.88;30997378;28;20093;-83
2024/01/18 19:24:44;;;;;;;9.37;5.57;;;;;;;9.49;100.00;98936.16;31009361;28;20141;-82
2024/01/18 19:39:47;;;;;;;21.00;7.27;;;;;;;9.49;100.00;98890.09;30945827;28;20069;-83
2024/01/18 19:54:49;;;;;;;11.37;5.83;;;;;;;9.73;100.00;98910.16;31003394;28;20050;-84
2024/01/18 20:09:51;;;;;;;14.93;5.97;;;;;;;9.66;100.00;98852.78;31000993;28;20054;-85
2024/01/18 20:24:53;;;;;;;10.73;4.67;;;;;;;9.62;100.00;98814.97;31001576;28;20054;-85
2024/01/18 20:39:55;;;;;;;11.47;5.57;;;;;;;9.68;100.00;98818.63;30985312;28;20558;-84
2024/01/18 20:54:57;;;;;;;8.97;5.13;;;;;;;9.85;100.00;98792.06;30956292;28;20055;-85
2024/01/18 21:09:59;;;;;;;7.83;4.67;;;;;;;9.77;100.00;98767.16;30968015;28;20064;-86
2024/01/18 21:25:02;;;;;;;8.03;4.47;;;;;;;9.82;100.00;98774.72;30995516;28;20054;-85
2024/01/18 21:40:05;;;;;;;9.33;5.23;;;;;;;10.75;100.00;98733.09;30991097;28;20058;-85
2024/01/18 21:55:07;;;;;;;6.87;3.53;;;;;;;10.59;100.00;98759.31;31002777;28;20471;-81
2024/01/18 22:10:09;;;;;;;5.90;3.60;;;;;;;10.72;100.00;98755.69;30979580;28;20110;-76
2024/01/18 22:25:11;;;;;;;7.67;2.90;;;;;;;9.92;100.00;98708.47;30996958;28;20061;-78
2024/01/18 22:40:13;;;;;;;34.60;15.57;;;;;;;10.14;100.00;98680.56;30990422;28;20482;-77
2024/01/18 22:55:15;;;;;;;7.43;3.53;;;;;;;10.15;100.00;98657.66;30982651;28;20487;-79
2024/01/18 23:10:18;;;;;;;10.93;6.00;;;;;;;10.34;100.00;98625.91;31002566;28;20566;-80
2024/01/18 23:25:20;;;;;;;18.47;9.53;;;;;;;10.54;100.00;98621.53;31005176;28;20061;-78
2024/01/18 23:40:22;;;;;;;15.60;8.20;;;;;;;10.86;100.00;98613.97;30993872;28;20090;-78
2024/01/18 23:55:24;;;;;;;22.23;11.70;;;;;;;11.30;100.00;98618.97;30992986;28;20440;-78
